Terminal Aerodrome Forecast
Issued by NWS

Home | Current Version | Previous Version | Text Only | Print | Product List | Glossary On
Versions: 1 2 3 4 5 6 7 8 9 10 11 12 13 14 15 16 17
344
FTUS43 KDTX 131720
TAFDET
TAF
KDET 131720Z 1318/1418 30012G19KT P6SM SCT035 BKN045
     FM132300 28006KT P6SM BKN060
     FM140200 VRB03KT P6SM SKC
     FM141600 14008KT P6SM SCT035 BKN250=

USA.gov is the U.S. government's official web portal to all federal, state and local government web resources and services.